createdAt,value
2022-10-09T00:01:24.917Z,100764.16
2022-10-09T00:03:54.988Z,100764.85
2022-10-09T00:06:26.633Z,100771.16
2022-10-09T00:08:55.202Z,100777.09
2022-10-09T00:11:26.188Z,100780.56
2022-10-09T00:13:55.452Z,100782.98
2022-10-09T00:16:24.785Z,100780.17
2022-10-09T00:18:53.432Z,100785.44
2022-10-09T00:21:31.299Z,100787.34
2022-10-09T00:24:01.651Z,100792.40
2022-10-09T00:26:30.276Z,100794.15
2022-10-09T00:28:58.683Z,100795.88
2022-10-09T00:31:26.941Z,100796.23
2022-10-09T00:33:55.714Z,100798.15
2022-10-09T00:36:25.955Z,100802.71
2022-10-09T00:38:55.345Z,100800.58
2022-10-09T00:41:29.998Z,100806.48
2022-10-09T00:44:03.897Z,100804.88
2022-10-09T00:46:33.825Z,100802.56
2022-10-09T00:49:08.188Z,100809.56
2022-10-09T00:51:36.773Z,100809.40
2022-10-09T00:54:08.456Z,100811.87
2022-10-09T00:56:36.535Z,100816.19
2022-10-09T00:59:06.116Z,100821.25
2022-10-09T01:01:34.614Z,100823.14
2022-10-09T01:04:02.794Z,100825.75
2022-10-09T01:07:15.333Z,100824.71
2022-10-09T01:09:49.889Z,100827.49
2022-10-09T01:12:31.039Z,100827.13
2022-10-09T01:15:08.145Z,100828.86
2022-10-09T01:17:44.213Z,100832.52
2022-10-09T01:20:25.008Z,100829.20
2022-10-09T01:23:21.014Z,100836.02
2022-10-09T01:26:07.452Z,100836.38
2022-10-09T01:28:36.880Z,100835.13
2022-10-09T01:31:06.843Z,100841.04
2022-10-09T01:33:34.991Z,100843.11
2022-10-09T01:36:04.979Z,100844.66
2022-10-09T01:38:35.065Z,100848.51
2022-10-09T01:41:04.515Z,100848.86
2022-10-09T01:43:32.517Z,100855.30
2022-10-09T01:46:23.893Z,100856.33
2022-10-09T01:49:42.753Z,100855.60
2022-10-09T01:52:32.117Z,100851.20
2022-10-09T01:55:00.176Z,100854.01
2022-10-09T01:57:52.612Z,100858.56
2022-10-09T02:00:21.361Z,100861.19
2022-10-09T02:02:52.828Z,100863.08
2022-10-09T02:05:29.120Z,100867.95
2022-10-09T02:07:59.473Z,100870.20
2022-10-09T02:10:27.944Z,100873.36
2022-10-09T02:13:01.222Z,100878.97
2022-10-09T02:15:39.062Z,100879.67
2022-10-09T02:18:11.404Z,100878.77
2022-10-09T02:20:48.351Z,100880.83
2022-10-09T02:23:18.415Z,100888.14
2022-10-09T02:25:46.740Z,100887.20
2022-10-09T02:28:15.145Z,100895.10
2022-10-09T02:31:01.895Z,100901.04
2022-10-09T02:33:34.540Z,100906.10
2022-10-09T02:36:03.389Z,100915.90
2022-10-09T02:38:31.483Z,100908.86
2022-10-09T02:41:00.959Z,100913.90
2022-10-09T02:43:29.448Z,100913.55
2022-10-09T02:45:57.503Z,100909.86
2022-10-09T02:48:25.491Z,100917.52
2022-10-09T02:50:53.853Z,100923.31
2022-10-09T02:53:21.939Z,100925.92
2022-10-09T02:55:49.985Z,100929.41
2022-10-09T02:58:18.458Z,100931.34
2022-10-09T03:00:51.071Z,100929.39
2022-10-09T03:03:20.652Z,100932.86
2022-10-09T03:05:49.340Z,100934.80
2022-10-09T03:08:17.485Z,100934.77
2022-10-09T03:10:45.500Z,100937.55
2022-10-09T03:13:13.560Z,100935.79
2022-10-09T03:15:41.722Z,100941.77
2022-10-09T03:18:09.816Z,100938.98
2022-10-09T03:20:38.620Z,100943.35
2022-10-09T03:23:06.630Z,100946.50
2022-10-09T03:25:34.652Z,100951.90
2022-10-09T03:28:03.071Z,100959.09
2022-10-09T03:30:31.204Z,100957.55
2022-10-09T03:32:59.493Z,100969.63
2022-10-09T03:35:27.565Z,100966.46
2022-10-09T03:37:55.584Z,100968.17
2022-10-09T03:40:23.603Z,100972.18
2022-10-09T03:42:51.850Z,100971.11
2022-10-09T03:45:20.064Z,100973.04
2022-10-09T03:47:48.105Z,100977.62
2022-10-09T03:50:16.968Z,100983.39
2022-10-09T03:52:45.000Z,100982.49
2022-10-09T03:55:12.979Z,100986.14
2022-10-09T03:57:41.103Z,100989.77
2022-10-09T04:00:09.855Z,100984.55
2022-10-09T04:02:37.890Z,100989.96
2022-10-09T04:05:07.168Z,100993.83
2022-10-09T04:07:35.405Z,101000.29
2022-10-09T04:10:05.122Z,101000.80
2022-10-09T04:12:33.239Z,101001.15
2022-10-09T04:15:01.375Z,101001.65
2022-10-09T04:17:30.443Z,101009.20
2022-10-09T04:19:58.477Z,101011.48
2022-10-09T04:22:26.561Z,101010.83
2022-10-09T04:24:54.599Z,101017.45
2022-10-09T04:27:22.723Z,101018.30
2022-10-09T04:29:50.873Z,101016.38
2022-10-09T04:32:18.860Z,101017.42
2022-10-09T04:34:47.108Z,101023.58
2022-10-09T04:37:15.167Z,101021.48
2022-10-09T04:39:43.137Z,101026.04
2022-10-09T04:42:11.188Z,101028.83
2022-10-09T04:44:39.241Z,101030.73
2022-10-09T04:47:11.135Z,101032.14
2022-10-09T04:49:40.414Z,101036.36
2022-10-09T04:52:08.432Z,101035.51
2022-10-09T04:54:36.407Z,101038.48
2022-10-09T04:57:04.994Z,101042.13
2022-10-09T04:59:33.019Z,101048.59
2022-10-09T05:02:01.434Z,101050.16
2022-10-09T05:04:29.777Z,101059.83
2022-10-09T05:06:57.758Z,101065.63
2022-10-09T05:09:25.807Z,101071.21
2022-10-09T05:11:53.922Z,101076.79
2022-10-09T05:14:22.129Z,101076.43
2022-10-09T05:17:12.626Z,101078.36
2022-10-09T05:19:40.354Z,101077.32
2022-10-09T05:22:08.383Z,101078.56
2022-10-09T05:24:36.367Z,101081.38
2022-10-09T05:27:04.985Z,101082.27
2022-10-09T05:29:33.183Z,101090.83
2022-10-09T05:32:01.174Z,101089.25
2022-10-09T05:34:29.348Z,101088.39
2022-10-09T05:36:57.371Z,101091.21
2022-10-09T05:39:25.467Z,101095.58
2022-10-09T05:41:53.506Z,101094.02
2022-10-09T05:44:21.620Z,101100.31
2022-10-09T05:46:49.651Z,101103.81
2022-10-09T05:49:17.726Z,101109.06
2022-10-09T05:51:45.923Z,101105.61
2022-10-09T05:54:16.426Z,101106.17
2022-10-09T05:56:45.327Z,101108.63
2022-10-09T05:59:19.111Z,101109.65
2022-10-09T06:01:52.187Z,101114.70
2022-10-09T06:04:23.031Z,101115.19
2022-10-09T06:06:51.879Z,101115.01
2022-10-09T06:09:23.432Z,101119.75
2022-10-09T06:11:53.575Z,101125.55
2022-10-09T06:14:22.341Z,101130.98
2022-10-09T06:16:50.649Z,101137.95
2022-10-09T06:19:20.492Z,101139.70
2022-10-09T06:21:49.319Z,101145.66
2022-10-09T06:24:28.179Z,101147.27
2022-10-09T06:26:58.226Z,101151.50
2022-10-09T06:29:26.444Z,101148.00
2022-10-09T06:31:54.505Z,101150.27
2022-10-09T06:34:23.446Z,101153.06
2022-10-09T06:36:51.462Z,101156.09
2022-10-09T06:39:19.640Z,101160.15
2022-10-09T06:41:47.657Z,101165.41
2022-10-09T06:44:17.310Z,101171.89
2022-10-09T06:46:48.720Z,101177.48
2022-10-09T06:49:17.286Z,101180.98
2022-10-09T06:51:45.336Z,101187.82
2022-10-09T06:54:15.791Z,101192.79
2022-10-09T06:56:44.728Z,101196.86
2022-10-09T06:59:13.206Z,101196.73
2022-10-09T07:01:41.361Z,101199.92
2022-10-09T07:04:14.455Z,101200.27
2022-10-09T07:06:44.976Z,101202.20
2022-10-09T07:09:14.689Z,101195.95
2022-10-09T07:11:45.573Z,101201.77
2022-10-09T07:14:16.123Z,101207.94
2022-10-09T07:16:46.366Z,101218.45
2022-10-09T07:19:17.822Z,101217.59
2022-10-09T07:21:48.880Z,101217.98
2022-10-09T07:24:18.113Z,101219.08
2022-10-09T07:26:47.569Z,101221.11
2022-10-09T07:29:17.861Z,101217.48
2022-10-09T07:31:46.037Z,101223.33
2022-10-09T07:34:14.284Z,101226.14
2022-10-09T07:36:43.221Z,101226.86
2022-10-09T07:39:11.633Z,101229.48
2022-10-09T07:41:39.782Z,101234.58
2022-10-09T07:44:07.779Z,101240.79
2022-10-09T07:46:35.842Z,101241.51
2022-10-09T07:49:04.732Z,101243.45
2022-10-09T07:51:33.201Z,101251.00
2022-10-09T07:54:02.394Z,101249.30
2022-10-09T07:56:33.461Z,101251.46
2022-10-09T07:59:13.485Z,101251.51
2022-10-09T08:01:42.123Z,101252.92
2022-10-09T08:04:10.194Z,101254.65
2022-10-09T08:06:38.374Z,101260.95
2022-10-09T08:09:07.758Z,101264.67
2022-10-09T08:11:40.604Z,101267.02
2022-10-09T08:14:18.074Z,101264.27
2022-10-09T08:16:48.269Z,101266.96
2022-10-09T08:19:37.019Z,101264.74
2022-10-09T08:22:05.196Z,101269.88
2022-10-09T08:24:33.308Z,101272.92
2022-10-09T08:27:01.351Z,101280.20
2022-10-09T08:29:29.751Z,101280.96
2022-10-09T08:31:58.192Z,101282.95
2022-10-09T08:34:26.259Z,101280.71
2022-10-09T08:36:54.409Z,101285.27
2022-10-09T08:39:22.842Z,101289.81
2022-10-09T08:41:56.407Z,101294.00
2022-10-09T08:44:29.507Z,101294.72
2022-10-09T08:47:21.901Z,101300.57
2022-10-09T08:49:55.987Z,101298.90
2022-10-09T08:52:35.925Z,101299.09
2022-10-09T08:55:17.717Z,101298.71
2022-10-09T08:57:50.539Z,101302.04
2022-10-09T09:00:24.172Z,101303.11
2022-10-09T09:03:01.297Z,101307.54
2022-10-09T09:05:40.593Z,101310.26
2022-10-09T09:08:24.065Z,101309.64
2022-10-09T09:11:02.502Z,101312.34
2022-10-09T09:13:43.176Z,101309.58
2022-10-09T09:16:35.742Z,101314.70
2022-10-09T09:19:26.248Z,101312.46
2022-10-09T09:21:56.577Z,101313.02
2022-10-09T09:24:31.080Z,101310.71
2022-10-09T09:27:03.443Z,101311.78
2022-10-09T09:29:41.183Z,101310.27
2022-10-09T09:32:20.661Z,101308.20
2022-10-09T09:34:49.898Z,101308.14
2022-10-09T09:37:18.048Z,101308.96
2022-10-09T09:42:34.474Z,101311.79
2022-10-09T09:45:06.739Z,101314.66
2022-10-09T09:47:47.240Z,101309.42
2022-10-09T09:50:45.475Z,101311.42
2022-10-09T09:53:25.287Z,101314.48
2022-10-09T09:55:54.705Z,101311.82
2022-10-09T09:58:32.745Z,101308.06
2022-10-09T10:01:03.554Z,101307.77
2022-10-09T10:03:33.146Z,101308.71
2022-10-09T10:06:01.602Z,101307.85
2022-10-09T10:08:34.551Z,101310.82
2022-10-09T10:11:07.642Z,101308.92
2022-10-09T10:13:49.373Z,101313.55
2022-10-09T10:16:38.864Z,101314.34
2022-10-09T10:19:18.914Z,101309.65
2022-10-09T10:21:51.577Z,101313.57
2022-10-09T10:24:23.946Z,101313.64
2022-10-09T10:27:30.235Z,101308.77
2022-10-09T10:30:05.854Z,101309.23
2022-10-09T10:32:55.564Z,101310.70
2022-10-09T10:35:35.973Z,101311.60
2022-10-09T10:38:06.369Z,101314.09
2022-10-09T10:40:53.392Z,101310.08
2022-10-09T10:43:44.851Z,101307.48
2022-10-09T10:46:32.800Z,101305.79
2022-10-09T10:49:01.042Z,101306.73
2022-10-09T10:51:29.373Z,101306.46
2022-10-09T10:54:16.355Z,101310.00
2022-10-09T10:57:05.869Z,101309.49
2022-10-09T10:59:43.563Z,101308.84
2022-10-09T11:02:12.119Z,101307.83
2022-10-09T11:04:59.111Z,101316.68
2022-10-09T11:07:45.009Z,101311.83
2022-10-09T11:10:26.797Z,101319.80
2022-10-09T11:13:12.607Z,101315.10
2022-10-09T11:16:05.967Z,101313.90
2022-10-09T11:18:54.144Z,101316.80
2022-10-09T11:21:59.563Z,101311.19
2022-10-09T11:24:49.178Z,101310.90
2022-10-09T11:27:29.448Z,101312.19
2022-10-09T11:30:02.592Z,101307.50
2022-10-09T11:32:34.893Z,101311.06
2022-10-09T11:35:13.202Z,101313.20
2022-10-09T11:37:44.182Z,101316.03
2022-10-09T11:40:20.755Z,101314.31
2022-10-09T11:43:18.505Z,101313.44
2022-10-09T11:46:27.104Z,101308.86
2022-10-09T11:49:54.516Z,101308.48
2022-10-09T11:52:39.962Z,101309.03
2022-10-09T11:55:16.470Z,101311.15
2022-10-09T11:57:44.678Z,101305.00
2022-10-09T12:00:14.380Z,101307.29
2022-10-09T12:02:43.619Z,101306.60
2022-10-09T12:08:26.587Z,101296.33
2022-10-09T12:10:58.876Z,101301.61
2022-10-09T12:13:30.378Z,101296.48
2022-10-09T12:16:00.084Z,101295.27
2022-10-09T12:18:30.198Z,101291.93
2022-10-09T12:21:02.321Z,101291.23
2022-10-09T12:23:37.176Z,101296.88
2022-10-09T12:26:11.679Z,101297.05
2022-10-09T12:28:48.167Z,101292.81
2022-10-09T12:31:31.764Z,101293.16
2022-10-09T12:34:05.267Z,101290.86
2022-10-09T12:36:34.534Z,101284.70
2022-10-09T12:39:23.768Z,101280.80
2022-10-09T12:41:56.413Z,101279.17
2022-10-09T12:44:30.643Z,101279.86
2022-10-09T12:47:36.437Z,101278.45
2022-10-09T12:50:18.754Z,101279.33
2022-10-09T12:52:56.943Z,101275.30
2022-10-09T12:56:12.963Z,101279.72
2022-10-09T12:58:47.182Z,101271.10
2022-10-09T13:01:16.713Z,101272.52
2022-10-09T13:03:58.834Z,101272.73
2022-10-09T13:06:48.088Z,101269.38
2022-10-09T13:09:38.392Z,101274.52
2022-10-09T13:12:31.223Z,101272.95
2022-10-09T13:25:25.303Z,101265.05
2022-10-09T13:29:24.278Z,101261.02
2022-10-09T13:31:53.180Z,101261.55
2022-10-09T13:35:13.034Z,101256.96
2022-10-09T13:38:49.304Z,101260.13
2022-10-09T13:42:13.312Z,101260.13
2022-10-09T13:46:15.324Z,101257.84
2022-10-09T13:59:47.425Z,101255.46
2022-10-09T14:02:15.751Z,101257.02
2022-10-09T14:04:48.753Z,101251.41
2022-10-09T14:07:17.086Z,101248.96
2022-10-09T14:09:45.391Z,101250.58
2022-10-09T14:12:13.643Z,101251.66
2022-10-09T14:14:52.223Z,101253.43
2022-10-09T14:26:05.128Z,101239.19
2022-10-09T14:29:48.362Z,101244.67
2022-10-09T14:54:29.723Z,101237.58
2022-10-09T14:57:55.597Z,101235.64
2022-10-09T15:00:24.412Z,101239.69
2022-10-09T15:20:22.557Z,101227.40
2022-10-09T15:24:03.376Z,101226.67
2022-10-09T15:31:40.985Z,101233.11
2022-10-09T15:42:22.158Z,101233.13
2022-10-09T16:04:32.005Z,101246.73
2022-10-09T16:07:06.962Z,101240.39
2022-10-09T16:09:40.145Z,101243.51
2022-10-09T16:13:08.745Z,101242.61
2022-10-09T16:19:25.038Z,101246.70
2022-10-09T16:25:32.310Z,101252.89
2022-10-09T16:28:07.227Z,101253.89
2022-10-09T16:31:09.681Z,101258.42
2022-10-09T16:34:57.299Z,101257.15
2022-10-09T16:37:25.679Z,101257.79
2022-10-09T16:44:39.498Z,101262.55
2022-10-09T16:48:02.932Z,101260.31
2022-10-09T16:53:56.442Z,101262.31
2022-10-09T16:57:52.852Z,101257.20
2022-10-09T17:00:45.334Z,101260.25
2022-10-09T17:03:22.736Z,101256.83
2022-10-09T17:06:40.178Z,101264.12
2022-10-09T17:23:27.648Z,101268.02
2022-10-09T17:26:20.768Z,101267.39
2022-10-09T17:29:15.593Z,101270.48
2022-10-09T17:35:20.678Z,101268.84
2022-10-09T17:42:00.183Z,101269.08
2022-10-09T17:49:31.894Z,101272.09
2022-10-09T17:56:45.156Z,101273.27
2022-10-09T18:05:55.576Z,101267.80
2022-10-09T18:08:23.812Z,101269.05
2022-10-09T18:11:03.130Z,101267.06
2022-10-09T18:13:57.354Z,101266.85
2022-10-09T18:16:35.840Z,101266.77
2022-10-09T18:19:15.653Z,101264.94
2022-10-09T18:39:15.239Z,101255.97
2022-10-09T18:43:02.295Z,101254.52
2022-10-09T18:46:06.534Z,101256.92
2022-10-09T18:48:51.967Z,101257.39
2022-10-09T18:51:29.264Z,101257.88
2022-10-09T18:54:02.253Z,101257.65
2022-10-09T19:01:25.055Z,101249.04
2022-10-09T19:03:54.906Z,101248.33
2022-10-09T19:06:24.838Z,101249.88
2022-10-09T19:09:01.307Z,101245.44
2022-10-09T19:12:50.138Z,101249.08
2022-10-09T19:15:42.522Z,101251.24
2022-10-09T19:18:11.923Z,101247.89
2022-10-09T19:30:58.091Z,101237.48
2022-10-09T19:38:32.722Z,101237.11
2022-10-09T19:44:59.913Z,101238.48
2022-10-09T19:56:43.270Z,101234.64
2022-10-09T20:02:43.957Z,101229.10
2022-10-09T20:05:13.582Z,101229.35
2022-10-09T20:08:04.187Z,101217.70
2022-10-09T20:10:46.607Z,101222.23
2022-10-09T20:13:35.007Z,101219.77
2022-10-09T20:16:33.336Z,101216.42
2022-10-09T20:19:08.315Z,101213.91
2022-10-09T20:22:25.926Z,101217.68
2022-10-09T20:27:57.358Z,101216.91
2022-10-09T20:33:49.670Z,101210.73
2022-10-09T21:01:43.490Z,101209.83
2022-10-09T21:04:33.730Z,101207.33
2022-10-09T21:30:16.193Z,101195.33
2022-10-09T21:32:45.358Z,101197.09
2022-10-09T21:36:09.411Z,101194.48
2022-10-09T21:38:38.345Z,101196.87
2022-10-09T21:46:10.379Z,101195.99
2022-10-09T21:48:47.905Z,101191.15
2022-10-09T21:51:16.207Z,101190.34
2022-10-09T21:53:47.757Z,101188.78
2022-10-09T21:56:25.320Z,101186.52
2022-10-09T22:08:08.036Z,101185.94
2022-10-09T22:10:36.335Z,101184.42
2022-10-09T22:13:10.834Z,101186.72
2022-10-09T22:19:02.372Z,101186.41
2022-10-09T22:21:37.854Z,101184.73
2022-10-09T22:24:16.609Z,101178.34
2022-10-09T22:38:34.614Z,101178.91
2022-10-09T22:41:34.482Z,101176.01
2022-10-09T22:47:37.919Z,101167.83
2022-10-09T22:50:06.463Z,101166.42
2022-10-09T22:52:34.602Z,101169.59
2022-10-09T22:55:03.571Z,101170.83
2022-10-09T22:57:31.612Z,101171.41
2022-10-09T22:59:59.602Z,101170.89
2022-10-09T23:02:27.747Z,101171.98
2022-10-09T23:04:55.849Z,101166.04
2022-10-09T23:07:23.960Z,101164.64
2022-10-09T23:09:52.342Z,101163.77
2022-10-09T23:12:20.435Z,101161.88
2022-10-09T23:14:48.591Z,101158.55
2022-10-09T23:17:17.229Z,101161.69
2022-10-09T23:19:45.317Z,101158.87
2022-10-09T23:22:13.327Z,101156.58
2022-10-09T23:24:41.536Z,101155.36
2022-10-09T23:27:09.503Z,101155.20
2022-10-09T23:29:37.531Z,101156.27
2022-10-09T23:32:05.629Z,101154.75
2022-10-09T23:34:35.666Z,101154.05
2022-10-09T23:37:03.684Z,101154.35
2022-10-09T23:39:31.787Z,101149.42
2022-10-09T23:41:59.798Z,101142.58
2022-10-09T23:44:27.801Z,101142.05
2022-10-09T23:46:55.884Z,101140.85
2022-10-09T23:49:23.860Z,101142.06
2022-10-09T23:51:51.856Z,101138.91
2022-10-09T23:54:20.134Z,101133.48
2022-10-09T23:56:48.586Z,101135.05
2022-10-09T23:59:16.617Z,101135.05
